createdAt,value
2017-11-27T00:01:37.720Z,2.60
2017-11-27T00:04:05.255Z,2.73
2017-11-27T00:06:32.772Z,3.33
2017-11-27T00:09:00.311Z,3.00
2017-11-27T00:11:27.838Z,3.30
2017-11-27T00:13:55.378Z,2.57
2017-11-27T00:16:22.902Z,2.73
2017-11-27T00:18:50.442Z,2.97
2017-11-27T00:21:18.574Z,2.70
2017-11-27T00:23:46.145Z,2.70
2017-11-27T00:26:13.659Z,2.93
2017-11-27T00:28:41.199Z,3.17
2017-11-27T00:31:08.720Z,3.30
2017-11-27T00:33:37.011Z,3.20
2017-11-27T00:36:04.540Z,4.07
2017-11-27T00:38:32.079Z,3.60
2017-11-27T00:40:59.609Z,3.10
2017-11-27T00:43:27.140Z,3.77
2017-11-27T00:45:54.660Z,3.43
2017-11-27T00:48:22.420Z,3.47
2017-11-27T00:50:50.648Z,3.10
2017-11-27T00:53:18.189Z,3.17
2017-11-27T00:55:45.710Z,3.20
2017-11-27T00:58:13.253Z,3.53
2017-11-27T01:00:40.774Z,3.20
2017-11-27T01:03:09.093Z,3.00
2017-11-27T01:05:36.611Z,3.63
2017-11-27T01:08:04.141Z,3.10
2017-11-27T01:10:31.682Z,3.63
2017-11-27T01:12:59.596Z,3.77
2017-11-27T01:15:27.899Z,4.47
2017-11-27T01:17:55.421Z,3.90
2017-11-27T01:20:22.978Z,3.30
2017-11-27T01:22:50.491Z,3.27
2017-11-27T01:25:18.024Z,3.60
2017-11-27T01:27:46.315Z,3.00
2017-11-27T01:30:14.246Z,3.00
2017-11-27T01:32:41.764Z,2.97
2017-11-27T01:35:09.695Z,3.30
2017-11-27T01:37:37.219Z,2.97
2017-11-27T01:40:04.756Z,3.47
2017-11-27T01:42:32.280Z,2.93
2017-11-27T01:44:59.818Z,3.47
2017-11-27T01:47:27.330Z,3.80
2017-11-27T01:49:54.988Z,3.30
2017-11-27T01:52:22.507Z,2.87
2017-11-27T01:54:50.068Z,2.80
2017-11-27T01:57:18.360Z,3.17
2017-11-27T01:59:46.283Z,3.27
2017-11-27T02:02:13.812Z,2.90
2017-11-27T02:04:41.362Z,2.60
2017-11-27T02:07:08.888Z,3.60
2017-11-27T02:09:37.193Z,3.07
2017-11-27T02:12:04.716Z,3.17
2017-11-27T02:14:32.255Z,2.50
2017-11-27T02:16:59.786Z,2.77
2017-11-27T02:19:27.351Z,3.27
2017-11-27T02:21:54.862Z,3.40
2017-11-27T02:24:22.385Z,2.80
2017-11-27T02:26:49.927Z,2.70
2017-11-27T02:29:17.456Z,2.90
2017-11-27T02:31:45.307Z,2.90
2017-11-27T02:34:12.828Z,3.07
2017-11-27T02:36:40.530Z,3.60
2017-11-27T02:39:08.051Z,2.90
2017-11-27T02:41:35.588Z,3.00
2017-11-27T02:44:03.112Z,3.00
2017-11-27T02:46:30.685Z,2.67
2017-11-27T02:48:58.982Z,2.50
2017-11-27T02:51:26.526Z,2.13
2017-11-27T02:53:54.035Z,2.80
2017-11-27T02:56:21.589Z,2.90
2017-11-27T02:58:49.103Z,2.90
2017-11-27T03:01:20.331Z,2.60
2017-11-27T03:03:47.844Z,2.43
2017-11-27T03:06:16.216Z,3.10
2017-11-27T03:08:43.754Z,2.90
2017-11-27T03:11:11.298Z,3.07
2017-11-27T03:13:38.815Z,3.00
2017-11-27T03:16:06.762Z,2.67
2017-11-27T03:18:34.283Z,2.80
2017-11-27T03:21:02.587Z,3.77
2017-11-27T03:23:35.279Z,2.47
2017-11-27T03:26:02.816Z,2.17
2017-11-27T03:28:31.575Z,2.93
2017-11-27T03:31:00.611Z,2.53
2017-11-27T03:33:28.151Z,2.40
2017-11-27T03:35:56.311Z,3.00
2017-11-27T03:38:23.829Z,2.47
2017-11-27T03:40:51.367Z,2.80
2017-11-27T03:43:18.895Z,2.80
2017-11-27T03:45:46.411Z,2.60
2017-11-27T03:48:13.944Z,2.10
2017-11-27T03:50:41.865Z,2.20
2017-11-27T03:53:09.407Z,2.80
2017-11-27T03:55:36.940Z,2.43
2017-11-27T03:58:04.472Z,2.20
2017-11-27T04:00:32.755Z,2.70
2017-11-27T04:03:00.295Z,2.57
2017-11-27T04:05:27.820Z,2.73
2017-11-27T04:07:55.400Z,2.40
2017-11-27T04:10:22.924Z,2.50
2017-11-27T04:12:50.471Z,2.37
2017-11-27T04:15:17.996Z,3.10
2017-11-27T04:17:45.535Z,2.40
2017-11-27T04:20:13.056Z,2.60
2017-11-27T04:22:40.597Z,2.63
2017-11-27T04:25:08.099Z,2.40
2017-11-27T04:27:35.639Z,1.90
2017-11-27T04:30:03.167Z,2.70
2017-11-27T04:32:30.712Z,2.50
2017-11-27T04:34:58.232Z,2.40
2017-11-27T04:37:25.786Z,2.03
2017-11-27T04:39:53.317Z,3.20
2017-11-27T04:42:20.877Z,2.60
2017-11-27T04:44:48.407Z,2.20
2017-11-27T04:47:15.953Z,2.67
2017-11-27T04:49:43.462Z,2.40
2017-11-27T04:52:10.996Z,2.57
2017-11-27T04:54:38.526Z,2.20
2017-11-27T04:57:06.051Z,2.60
2017-11-27T04:59:33.592Z,2.60
2017-11-27T05:02:01.129Z,2.30
2017-11-27T05:04:28.663Z,2.00
2017-11-27T05:06:56.183Z,2.00
2017-11-27T05:09:23.722Z,2.47
2017-11-27T05:11:52.016Z,2.60
2017-11-27T05:14:19.625Z,3.00
2017-11-27T05:16:47.160Z,3.27
2017-11-27T05:19:14.744Z,2.37
2017-11-27T05:21:42.269Z,2.10
2017-11-27T05:24:09.807Z,2.07
2017-11-27T05:26:37.323Z,2.00
2017-11-27T05:29:04.856Z,1.83
2017-11-27T05:31:32.417Z,2.30
2017-11-27T05:33:59.952Z,2.17
2017-11-27T05:36:28.239Z,1.70
2017-11-27T05:38:55.784Z,1.60
2017-11-27T05:41:24.079Z,1.93
2017-11-27T05:43:51.618Z,2.30
2017-11-27T05:46:19.141Z,1.90
2017-11-27T05:48:47.454Z,2.03
2017-11-27T05:51:14.982Z,1.70
2017-11-27T05:53:42.553Z,2.10
2017-11-27T05:56:10.074Z,2.20
2017-11-27T05:58:37.615Z,2.40
2017-11-27T06:01:05.130Z,2.00
2017-11-27T06:03:32.671Z,2.07
2017-11-27T06:06:00.976Z,2.63
2017-11-27T06:08:28.496Z,2.30
2017-11-27T06:10:56.030Z,2.20
2017-11-27T06:13:24.447Z,2.10
2017-11-27T06:15:52.389Z,2.60
2017-11-27T06:18:19.928Z,1.93
2017-11-27T06:20:47.467Z,1.80
2017-11-27T06:23:14.984Z,1.77
2017-11-27T06:25:42.904Z,2.30
2017-11-27T06:28:10.431Z,1.73
2017-11-27T06:30:37.975Z,2.30
2017-11-27T06:33:05.494Z,2.20
2017-11-27T06:35:33.237Z,2.03
2017-11-27T06:38:00.773Z,1.90
2017-11-27T06:40:28.315Z,2.10
2017-11-27T06:42:56.283Z,1.93
2017-11-27T06:45:23.833Z,2.40
2017-11-27T06:47:51.349Z,2.10
2017-11-27T06:50:18.885Z,2.00
2017-11-27T06:52:47.204Z,2.20
2017-11-27T06:55:15.507Z,2.07
2017-11-27T06:57:43.021Z,2.37
2017-11-27T07:00:10.552Z,1.73
2017-11-27T07:02:38.071Z,2.30
2017-11-27T07:05:05.643Z,2.03
2017-11-27T07:07:33.168Z,2.30
2017-11-27T07:10:00.725Z,3.23
2017-11-27T07:12:33.004Z,2.13
2017-11-27T07:15:00.543Z,2.47
2017-11-27T07:17:28.064Z,2.80
2017-11-27T07:19:55.613Z,2.10
2017-11-27T07:22:23.179Z,2.37
2017-11-27T07:24:50.757Z,2.60
2017-11-27T07:27:18.307Z,2.80
2017-11-27T07:29:45.847Z,3.10
2017-11-27T07:32:13.888Z,2.87
2017-11-27T07:34:41.425Z,2.57
2017-11-27T07:37:09.047Z,2.50
2017-11-27T07:39:42.320Z,2.33
2017-11-27T07:42:22.128Z,2.17
2017-11-27T07:44:50.196Z,2.27
2017-11-27T07:47:17.724Z,2.17
2017-11-27T07:49:45.301Z,3.47
2017-11-27T07:52:13.753Z,2.80
2017-11-27T07:54:41.318Z,2.80
2017-11-27T07:57:09.439Z,2.73
2017-11-27T07:59:37.739Z,2.80
2017-11-27T08:02:06.895Z,2.70
2017-11-27T08:04:35.562Z,2.60
2017-11-27T08:07:04.290Z,2.80
2017-11-27T08:09:32.223Z,2.53
2017-11-27T08:12:00.168Z,2.60
2017-11-27T08:14:28.459Z,2.50
2017-11-27T08:16:56.257Z,2.57
2017-11-27T08:19:24.698Z,3.07
2017-11-27T08:21:52.752Z,2.80
2017-11-27T08:24:21.555Z,2.97
2017-11-27T08:26:50.090Z,2.80
2017-11-27T08:29:17.923Z,2.83
2017-11-27T08:31:46.240Z,3.00
2017-11-27T08:34:14.531Z,2.37
2017-11-27T08:36:42.884Z,2.77
2017-11-27T08:39:12.134Z,2.30
2017-11-27T08:41:39.744Z,2.80
2017-11-27T08:44:08.996Z,2.40
2017-11-27T08:46:37.298Z,2.63
2017-11-27T08:49:04.871Z,3.07
2017-11-27T08:51:32.804Z,2.30
2017-11-27T08:54:01.943Z,2.10
2017-11-27T08:56:30.493Z,1.90
2017-11-27T08:58:58.772Z,2.40
2017-11-27T09:01:27.136Z,2.20
2017-11-27T09:03:55.499Z,2.03
2017-11-27T09:06:23.431Z,1.80
2017-11-27T09:08:51.376Z,2.60
2017-11-27T09:11:19.759Z,2.97
2017-11-27T09:13:48.092Z,2.53
2017-11-27T09:16:16.918Z,2.00
2017-11-27T09:18:44.848Z,2.20
2017-11-27T09:21:13.132Z,2.10
2017-11-27T09:23:41.440Z,1.90
2017-11-27T09:26:10.472Z,2.00
2017-11-27T09:28:38.261Z,2.30
2017-11-27T09:31:06.564Z,1.80
2017-11-27T09:33:34.938Z,2.00
2017-11-27T09:36:03.275Z,2.13
2017-11-27T09:38:31.577Z,1.80
2017-11-27T09:40:59.866Z,1.70
2017-11-27T09:43:28.197Z,2.20
2017-11-27T09:45:56.639Z,1.90
2017-11-27T09:48:24.938Z,2.00
2017-11-27T09:50:53.236Z,1.90
2017-11-27T09:53:22.275Z,2.60
2017-11-27T09:55:50.119Z,1.90
2017-11-27T09:58:18.175Z,1.90
2017-11-27T10:00:46.459Z,2.43
2017-11-27T10:03:13.991Z,2.10
2017-11-27T10:05:41.903Z,2.07
2017-11-27T10:08:10.222Z,1.87
2017-11-27T10:10:38.502Z,1.93
2017-11-27T10:13:06.846Z,2.40
2017-11-27T10:15:35.875Z,2.10
2017-11-27T10:18:03.831Z,1.83
2017-11-27T10:20:32.424Z,1.93
2017-11-27T10:23:00.346Z,1.77
2017-11-27T10:25:28.628Z,2.17
2017-11-27T10:27:56.932Z,1.70
2017-11-27T10:30:25.359Z,1.67
2017-11-27T10:32:53.646Z,1.70
2017-11-27T10:35:21.989Z,1.90
2017-11-27T10:37:50.266Z,1.60
2017-11-27T10:40:19.548Z,1.40
2017-11-27T10:42:47.119Z,2.00
2017-11-27T10:45:15.457Z,1.67
2017-11-27T10:47:44.651Z,1.63
2017-11-27T10:50:12.204Z,1.37
2017-11-27T10:52:40.496Z,1.70
2017-11-27T10:55:09.676Z,1.90
2017-11-27T10:57:38.281Z,1.80
2017-11-27T11:00:06.067Z,1.80
2017-11-27T11:02:34.556Z,1.90
2017-11-27T11:05:02.108Z,2.23
2017-11-27T11:07:30.404Z,1.90
2017-11-27T11:09:58.962Z,1.70
2017-11-27T11:12:27.509Z,1.77
2017-11-27T11:14:55.452Z,2.30
2017-11-27T11:17:23.738Z,2.33
2017-11-27T11:19:52.051Z,2.10
2017-11-27T11:22:19.973Z,2.20
2017-11-27T11:24:47.504Z,2.10
2017-11-27T11:27:15.797Z,2.00
2017-11-27T11:29:44.983Z,2.00
2017-11-27T11:32:12.855Z,1.80
2017-11-27T11:34:40.794Z,2.77
2017-11-27T11:37:09.085Z,3.83
2017-11-27T11:39:37.397Z,7.63
2017-11-27T11:42:04.928Z,3.80
2017-11-27T11:44:32.876Z,4.40
2017-11-27T11:47:01.172Z,8.70
2017-11-27T11:49:29.983Z,3.63
2017-11-27T11:51:57.902Z,5.57
2017-11-27T11:54:26.185Z,2.37
2017-11-27T11:56:54.478Z,2.50
2017-11-27T11:59:22.764Z,1.67
2017-11-27T12:01:50.323Z,2.07
2017-11-27T12:04:18.247Z,2.30
2017-11-27T12:06:46.568Z,2.23
2017-11-27T12:09:14.908Z,2.10
2017-11-27T12:11:43.674Z,2.00
2017-11-27T12:14:11.844Z,2.10
2017-11-27T12:16:40.155Z,2.73
2017-11-27T12:19:08.444Z,2.93
2017-11-27T12:21:36.759Z,3.43
2017-11-27T12:24:05.058Z,2.13
2017-11-27T12:26:33.796Z,2.40
2017-11-27T12:29:01.704Z,2.13
2017-11-27T12:31:30.008Z,2.00
2017-11-27T12:33:58.322Z,1.80
2017-11-27T12:36:26.671Z,2.67
2017-11-27T12:38:55.170Z,2.40
2017-11-27T12:41:23.485Z,2.40
2017-11-27T12:43:53.109Z,2.37
2017-11-27T12:46:22.156Z,2.00
2017-11-27T12:48:49.678Z,1.97
2017-11-27T12:51:17.972Z,1.90
2017-11-27T12:53:47.255Z,2.90
2017-11-27T12:56:15.562Z,1.90
2017-11-27T12:58:43.077Z,1.70
2017-11-27T13:01:11.395Z,1.83
2017-11-27T13:03:39.995Z,2.37
2017-11-27T13:06:08.303Z,2.00
2017-11-27T13:08:37.334Z,2.60
2017-11-27T13:11:04.880Z,2.53
2017-11-27T13:13:33.164Z,2.10
2017-11-27T13:16:01.553Z,1.60
2017-11-27T13:18:29.847Z,1.47
2017-11-27T13:20:58.142Z,1.80
2017-11-27T13:23:26.456Z,1.93
2017-11-27T13:25:53.975Z,2.00
2017-11-27T13:28:22.684Z,3.07
2017-11-27T13:30:50.205Z,3.77
2017-11-27T13:33:18.513Z,1.83
2017-11-27T13:35:46.839Z,1.50
2017-11-27T13:38:15.154Z,1.73
2017-11-27T13:40:43.443Z,3.13
2017-11-27T13:43:10.983Z,1.70
2017-11-27T13:45:38.924Z,2.20
2017-11-27T13:48:07.491Z,2.50
2017-11-27T13:50:35.791Z,1.63
2017-11-27T13:53:04.274Z,2.70
2017-11-27T13:55:32.433Z,1.90
2017-11-27T13:58:00.739Z,2.03
2017-11-27T14:00:30.059Z,1.57
2017-11-27T14:02:57.625Z,2.80
2017-11-27T14:05:26.285Z,2.10
2017-11-27T14:07:54.215Z,2.30
2017-11-27T14:10:22.502Z,1.90
2017-11-27T14:12:50.815Z,2.00
2017-11-27T14:15:19.143Z,1.70
2017-11-27T14:17:47.464Z,2.30
2017-11-27T14:20:15.787Z,1.40
2017-11-27T14:22:44.100Z,1.90
2017-11-27T14:25:12.385Z,1.80
2017-11-27T14:27:40.711Z,2.53
2017-11-27T14:30:09.003Z,1.83
2017-11-27T14:32:37.516Z,1.77
2017-11-27T14:35:05.798Z,1.60
2017-11-27T14:37:34.107Z,1.70
2017-11-27T14:40:02.380Z,2.03
2017-11-27T14:42:30.809Z,2.00
2017-11-27T14:44:59.098Z,1.60
2017-11-27T14:47:27.534Z,1.40
2017-11-27T14:49:56.785Z,1.80
2017-11-27T14:52:25.117Z,1.60
2017-11-27T14:54:52.652Z,1.60
2017-11-27T14:57:20.935Z,1.40
2017-11-27T14:59:49.243Z,2.10
2017-11-27T15:02:17.531Z,1.63
2017-11-27T15:04:46.437Z,2.23
2017-11-27T15:07:14.388Z,2.10
2017-11-27T15:09:42.765Z,2.20
2017-11-27T15:12:11.054Z,1.40
2017-11-27T15:14:39.362Z,1.97
2017-11-27T15:17:07.655Z,1.80
2017-11-27T15:19:35.964Z,1.70
2017-11-27T15:22:04.284Z,1.83
2017-11-27T15:24:33.519Z,2.03
2017-11-27T15:27:01.166Z,2.00
2017-11-27T15:29:29.472Z,1.97
2017-11-27T15:31:57.756Z,1.40
2017-11-27T15:34:26.058Z,1.87
2017-11-27T15:36:54.884Z,1.80
2017-11-27T15:39:22.820Z,1.67
2017-11-27T15:41:51.127Z,1.67
2017-11-27T15:44:20.377Z,1.70
2017-11-27T15:46:47.930Z,2.03
2017-11-27T15:49:16.243Z,2.00
2017-11-27T15:51:44.519Z,2.13
2017-11-27T15:54:12.824Z,1.70
2017-11-27T15:56:41.182Z,1.70
2017-11-27T16:12:32.127Z,1.60
2017-11-27T16:15:00.456Z,1.50
2017-11-27T16:17:27.981Z,2.20
2017-11-27T16:19:55.951Z,1.40
2017-11-27T16:22:24.236Z,1.90
2017-11-27T16:24:52.554Z,2.00
2017-11-27T16:27:20.843Z,1.70
2017-11-27T16:29:49.167Z,1.77
2017-11-27T16:32:17.452Z,2.03
2017-11-27T16:34:45.749Z,1.87
2017-11-27T16:37:13.265Z,2.30
2017-11-27T16:39:42.538Z,1.73
2017-11-27T16:42:11.363Z,1.60
2017-11-27T16:44:39.296Z,2.37
2017-11-27T16:47:07.576Z,2.03
2017-11-27T16:49:35.867Z,2.17
2017-11-27T16:52:04.169Z,1.70
2017-11-27T16:54:32.487Z,1.73
2017-11-27T16:57:00.851Z,1.70
2017-11-27T16:59:29.163Z,1.57
2017-11-27T17:01:57.478Z,1.50
2017-11-27T17:04:25.790Z,1.40
2017-11-27T17:06:54.182Z,1.50
2017-11-27T17:09:22.466Z,1.47
2017-11-27T17:11:50.851Z,1.30
2017-11-27T17:14:19.178Z,1.60
2017-11-27T17:16:48.399Z,1.30
2017-11-27T17:19:16.684Z,1.50
2017-11-27T17:21:44.469Z,1.90
2017-11-27T17:24:12.778Z,1.93
2017-11-27T17:26:42.006Z,1.50
2017-11-27T17:29:09.535Z,1.60
2017-11-27T17:31:38.416Z,1.90
2017-11-27T17:34:05.968Z,1.60
2017-11-27T17:36:35.760Z,2.33
2017-11-27T17:39:04.808Z,1.70
2017-11-27T17:41:32.343Z,1.37
2017-11-27T17:43:59.936Z,1.77
2017-11-27T17:46:27.893Z,2.00
2017-11-27T17:48:56.299Z,1.77
2017-11-27T17:51:24.636Z,1.30
2017-11-27T17:53:53.165Z,1.60
2017-11-27T17:56:21.091Z,1.60
2017-11-27T17:58:49.671Z,1.30
2017-11-27T18:01:18.096Z,1.40
2017-11-27T18:03:47.843Z,1.40
2017-11-27T18:06:15.792Z,1.50
2017-11-27T18:08:44.087Z,1.13
2017-11-27T18:11:14.874Z,1.37
2017-11-27T18:13:43.328Z,1.60
2017-11-27T18:16:11.637Z,1.50
2017-11-27T18:18:39.175Z,1.53
2017-11-27T18:21:07.490Z,1.17
2017-11-27T18:23:35.798Z,1.40
2017-11-27T18:26:04.101Z,1.47
2017-11-27T18:28:32.413Z,1.57
2017-11-27T18:31:00.683Z,1.47
2017-11-27T18:33:28.985Z,1.27
2017-11-27T18:35:57.557Z,1.43
2017-11-27T18:38:25.865Z,1.60
2017-11-27T18:40:54.924Z,3.00
2017-11-27T18:43:23.237Z,1.50
2017-11-27T18:45:50.756Z,1.63
2017-11-27T18:48:19.062Z,1.53
2017-11-27T18:50:47.542Z,1.57
2017-11-27T18:53:15.909Z,1.40
2017-11-27T18:55:44.203Z,2.73
2017-11-27T18:58:13.402Z,1.73
2017-11-27T19:00:40.915Z,1.50
2017-11-27T19:03:09.217Z,1.80
2017-11-27T19:05:38.441Z,1.50
2017-11-27T19:08:07.834Z,1.40
2017-11-27T19:10:36.879Z,1.30
2017-11-27T19:13:05.178Z,2.27
2017-11-27T19:15:33.463Z,2.97
2017-11-27T19:18:01.003Z,1.67
2017-11-27T19:20:28.912Z,1.70
2017-11-27T19:22:57.220Z,1.50
2017-11-27T19:25:26.363Z,1.10
2017-11-27T19:27:53.946Z,1.63
2017-11-27T19:30:22.238Z,2.60
2017-11-27T19:32:50.545Z,1.37
2017-11-27T19:35:18.080Z,1.40
2017-11-27T19:37:46.106Z,1.40
2017-11-27T19:40:14.397Z,2.83
2017-11-27T19:42:42.687Z,1.80
2017-11-27T19:45:10.984Z,1.47
2017-11-27T19:47:39.431Z,1.77
2017-11-27T19:50:07.744Z,1.40
2017-11-27T19:52:36.779Z,1.23
2017-11-27T19:55:04.363Z,1.30
2017-11-27T19:57:32.663Z,1.20
2017-11-27T20:00:00.973Z,1.47
2017-11-27T20:02:28.517Z,1.40
2017-11-27T20:04:56.816Z,1.90
2017-11-27T20:07:25.549Z,1.30
2017-11-27T20:09:53.101Z,1.63
2017-11-27T20:12:21.433Z,1.77
2017-11-27T20:14:49.736Z,1.47
2017-11-27T20:17:17.765Z,1.50
2017-11-27T20:19:45.351Z,1.40
2017-11-27T20:22:13.631Z,1.60
2017-11-27T20:24:42.666Z,1.50
2017-11-27T20:27:10.591Z,1.23
2017-11-27T20:29:38.571Z,1.40
2017-11-27T20:32:06.850Z,2.03
2017-11-27T20:34:35.805Z,1.50
2017-11-27T20:37:04.274Z,1.63
2017-11-27T20:39:31.823Z,1.97
2017-11-27T20:42:00.184Z,5.37
2017-11-27T20:44:28.607Z,2.67
2017-11-27T20:46:57.031Z,1.73
2017-11-27T20:49:25.488Z,1.13
2017-11-27T20:51:53.779Z,1.60
2017-11-27T20:54:22.079Z,1.27
2017-11-27T20:56:50.371Z,1.67
2017-11-27T20:59:18.687Z,1.67
2017-11-27T21:01:46.972Z,2.00
2017-11-27T21:04:15.263Z,1.37
2017-11-27T21:06:43.582Z,1.13
2017-11-27T21:09:11.870Z,1.40
2017-11-27T21:11:39.466Z,1.50
2017-11-27T21:14:07.392Z,1.40
2017-11-27T21:16:35.705Z,1.37
2017-11-27T21:19:04.616Z,1.17
2017-11-27T21:21:32.548Z,1.10
2017-11-27T21:24:01.412Z,1.50
2017-11-27T21:26:29.050Z,2.10
2017-11-27T21:28:57.475Z,1.27
2017-11-27T21:31:25.903Z,1.30
2017-11-27T21:33:55.083Z,2.00
2017-11-27T21:36:22.760Z,2.43
2017-11-27T21:38:51.795Z,1.93
2017-11-27T21:41:19.333Z,1.70
2017-11-27T21:43:47.819Z,3.60
2017-11-27T21:46:15.762Z,2.20
2017-11-27T21:48:44.996Z,2.80
2017-11-27T21:51:12.556Z,2.23
2017-11-27T21:53:40.844Z,4.40
2017-11-27T21:56:09.733Z,2.60
2017-11-27T21:58:38.511Z,2.47
2017-11-27T22:01:06.627Z,2.00
2017-11-27T22:03:34.166Z,2.40
2017-11-27T22:06:02.464Z,1.50
2017-11-27T22:08:30.875Z,1.60
2017-11-27T22:10:59.202Z,1.90
2017-11-27T22:13:26.724Z,1.47
2017-11-27T22:15:54.665Z,1.40
2017-11-27T22:18:22.980Z,1.90
2017-11-27T22:20:52.388Z,1.60
2017-11-27T22:23:20.137Z,1.90
2017-11-27T22:25:48.059Z,1.33
2017-11-27T22:28:16.356Z,1.37
2017-11-27T22:30:44.684Z,1.10
2017-11-27T22:33:13.052Z,1.10
2017-11-27T22:35:41.356Z,1.50
2017-11-27T22:38:09.680Z,1.20
2017-11-27T22:40:38.718Z,1.37
2017-11-27T22:43:06.295Z,1.23
2017-11-27T22:45:34.622Z,1.10
2017-11-27T22:48:02.845Z,1.60
2017-11-27T22:50:30.403Z,1.00
2017-11-27T22:52:58.350Z,1.27
2017-11-27T22:55:27.385Z,1.93
2017-11-27T22:57:55.707Z,1.20
2017-11-27T23:00:23.227Z,1.20
2017-11-27T23:02:50.763Z,1.20
2017-11-27T23:05:19.419Z,1.10
2017-11-27T23:07:47.020Z,1.17
2017-11-27T23:10:15.312Z,1.10
2017-11-27T23:12:43.630Z,1.50
2017-11-27T23:15:11.908Z,1.77
2017-11-27T23:17:39.456Z,1.20
2017-11-27T23:20:07.380Z,1.20
2017-11-27T23:22:36.148Z,1.10
2017-11-27T23:25:04.163Z,1.00
2017-11-27T23:27:33.224Z,1.23
2017-11-27T23:30:00.744Z,1.30
2017-11-27T23:32:29.280Z,1.57
2017-11-27T23:34:58.439Z,1.60
2017-11-27T23:37:26.856Z,1.30
2017-11-27T23:39:55.302Z,1.70
2017-11-27T23:42:23.639Z,2.20
2017-11-27T23:44:51.150Z,1.43
2017-11-27T23:47:19.092Z,1.20
2017-11-27T23:49:47.384Z,0.93
2017-11-27T23:52:15.666Z,1.03
2017-11-27T23:54:44.087Z,0.80
2017-11-27T23:57:12.375Z,1.67
2017-11-27T23:59:40.791Z,1.10
